Flight Track Log - Related Links

Times and Time Zones

All times are in EST time to prevent confusion due to time zone crossing. See the EJA831 flight status page for this flight to view local times or setup timezone preferences in your user account.

Time Position Orientation Groundspeed Altitude Reporting Facility
EST Latitude Longitude Course Direction KTS MPH feet Rate Location/Type
Tue 09:24:54 AM 38.7500 -90.3667 327° Northwest 162 186 1,600  Level Gateway (St. Louis) TRACON
Tue 09:25:37 AM 38.7731 -90.3856 327° Northwest 169 194 3,900 3,657 Climbing Kansas City Center
Tue 09:26:39 AM 38.8344 -90.3700 11° North 266 306 8,000 4,935 Climbing Kansas City Center
Tue 09:27:41 AM 38.8411 -90.2267 87° East 326 375 14,100 4,525 Climbing Kansas City Center
Tue 09:28:41 AM 38.8300 -90.0847 96° East 383 441 17,200 3,273 Climbing Kansas City Center
Tue 09:29:42 AM 38.8206 -89.9275 94° East 423 487 20,700 2,784 Climbing Kansas City Center
Tue 09:30:46 AM 38.8103 -89.7689 95° East 437 503 23,000 1,854 Climbing Kansas City Center
Tue 09:31:45 AM 38.7983 -89.5956 95° East 468 539 24,500 1,623 Climbing Kansas City Center
Tue 09:32:48 AM 38.8025 -89.4283 88° East 487 560 26,300 1,210 Climbing Kansas City Center
Tue 09:33:49 AM 38.8253 -89.2492 81° East 509 586 27,000 344 Climbing Kansas City Center
Tue 09:34:50 AM 38.8550 -89.0622 78° East 533 613 27,000  Level Kansas City Center
Tue 09:35:52 AM 38.9078 -88.8836 69° East 536 617 27,000  Level Kansas City Center
Tue 09:36:53 AM 38.9622 -88.6667 72° East 535 616 27,000  Level Kansas City Center
Tue 09:37:54 AM 39.0047 -88.4944 72° East 536 617 27,000  Level Kansas City Center
Tue 09:38:58 AM 39.0497 -88.3133 72° East 531 611 27,000  Level Kansas City Center
Tue 09:39:58 AM 39.0939 -88.1322 73° East 528 608 27,000  Level Kansas City Center
Tue 09:40:59 AM 39.1356 -87.9553 73° East 526 605 27,000  Level Indianapolis Center
Tue 09:42:00 AM 39.1789 -87.7764 73° East 522 601 27,000  Level Indianapolis Center
Tue 09:43:02 AM 39.2317 -87.5569 73° East 525 604 27,000  Level Indianapolis Center
Tue 09:44:04 AM 39.2756 -87.3742 73° East 528 608 27,000  Level Indianapolis Center
Tue 09:45:05 AM 39.3189 -87.1919 73° East 527 606 27,000  Level Indianapolis Center
Tue 09:46:07 AM 39.3619 -87.0094 73° East 527 606 27,000  Level Indianapolis Center
Tue 09:47:08 AM 39.4036 -86.8261 74° East 527 606 27,000  Level Indianapolis Center
Tue 09:48:10 AM 39.4472 -86.6433 73° East 528 608 27,000  Level Indianapolis Center
Tue 09:49:11 AM 39.4892 -86.4594 73° East 528 608 27,000  Level Indianapolis Center
Tue 09:50:13 AM 39.5314 -86.2742 73° East 532 612 27,000 -48 Level Indianapolis Center
Tue 09:51:15 AM 39.5736 -86.0883 74° East 534 615 26,900 -829 Descending Indianapolis Center
Tue 09:52:16 AM 39.6142 -85.9036 74° East 531 611 25,300 -1,756 Descending Indianapolis Center
Tue 09:53:18 AM 39.6328 -85.7322 82° East 498 573 23,300 -1,951 Descending Indianapolis Center
Tue 09:54:19 AM 39.6319 -85.5611 90° East 471 542 21,300 -1,951 Descending Indianapolis Center
Tue 09:55:21 AM 39.6253 -85.3994 93° East 457 526 19,300 -2,488 Descending Indianapolis Center
Tue 09:55:41 AM 39.6258 -85.3236 89° East 427 491 17,900 -2,613 Descending Indianapolis Center
Tue 09:56:23 AM 39.6486 -85.2253 73° East 434 499 16,600 -1,899 Descending Indianapolis Center
Tue 09:57:00 AM 39.6744 -85.1394 69° East 406 467 15,400 -1,967 Descending Indianapolis Center
Tue 09:57:24 AM 39.6903 -85.0872 68° East 418 481 14,600 -2,000 Descending Indianapolis Center
Tue 09:58:18 AM 39.7214 -84.9656 72° East 385 443 12,800 -1,839 Descending Indianapolis Center
Tue 09:58:26 AM 39.7236 -84.9547 75° East 396 456 12,700 -1,745 Descending Indianapolis Center
Tue 09:59:13 AM 39.7508 -84.8539 71° East 354 407 11,200 -1,742 Descending Indianapolis Center
Tue 09:59:28 AM 39.7572 -84.8342 67° East 370 426 10,900 -1,574 Descending Indianapolis Center
Tue 10:00:14 AM 39.7919 -84.7497 62° Northeast 315 362 9,600 -1,574 Descending Indianapolis Center
Tue 10:00:29 AM 39.7975 -84.7328 67° East 339 390 9,300 -1,667 Descending Indianapolis Center
Tue 10:01:08 AM 39.8317 -84.6586 59° Northeast 306 352 8,100 -1,548 Descending Indianapolis Center
Tue 10:01:31 AM 39.8425 -84.6369 57° Northeast 321 369 7,700 -1,522 Descending Indianapolis Center
Tue 10:02:15 AM 39.8781 -84.5606 59° Northeast 291 335 6,400 -1,548 Descending Indianapolis Center
Tue 10:02:33 AM 39.8850 -84.5472 56° Northeast 306 352 6,100 -364 Descending Indianapolis Center
Tue 10:03:21 AM 39.9219 -84.4675 59° Northeast 254 292 6,000 -98 Descending Indianapolis Center
Tue 10:03:34 AM 39.9306 -84.4506 56° Northeast 281 323 6,000  Level Indianapolis Center
Tue 10:04:16 AM 39.9550 -84.3944 60° Northeast 247 284 6,000  Level Indianapolis Center
Tue 10:04:37 AM 39.9669 -84.3728 54° Northeast 263 303 6,000 -590 Level Indianapolis Center
Tue 10:05:17 AM 39.9908 -84.3161 61° Northeast 251 289 5,400 -1,082 Descending Indianapolis Center
Tue 10:05:38 AM 40.0003 -84.2936 61° Northeast 256 295 4,900 -1,444 Descending Indianapolis Center
Tue 10:06:11 AM 40.0031 -84.2417 86° East 245 282 4,100 -1,082 Descending Indianapolis Center
Tue 10:06:39 AM 40.0072 -84.2069 81° East 249 287 3,800 -984 Descending Indianapolis Center
Tue 10:07:12 AM 40.0031 -84.1622 97° East 220 253 3,100 -1,161 Descending Indianapolis Center
Tue 10:07:41 AM 39.9861 -84.1417 137° Southeast 225 259 2,600 -396 Descending Indianapolis Center
Tue 10:08:43 AM 39.9525 -84.1383 176° South 183 211 2,500 -326 Descending Indianapolis Center
Tue 10:09:13 AM 39.9400 -84.1619 235° Southwest 104 120 2,100 -581 Descending Indianapolis Center
Tue 10:09:45 AM 39.9350 -84.1700 231° Southwest 133 153 1,900 -590 Descending Indianapolis Center
Tue 10:10:14 AM 39.9242 -84.1919 237° Southwest 100 115 1,500 -295 Descending Indianapolis Center
Tue 10:10:46 AM 39.9150 -84.2069 231° Southwest 123 142 1,600 188 Climbing Indianapolis Center

Login

Don't have an account? Register now (free) for customized features, flight alerts, and more!